N56WC KX51-KMTH
Flight info
| Callsign | N56WC |
|---|---|
| Flight time | N/A |
| Altitude | 4500 |
| Route | 07FA FA81 |
| Aircraft | SREY/L-SDFG/C |
Departure
| Time | N/A |
|---|---|
| Airport | KX51 |
Arrival
| Time | 2026-05-05 11:43 |
|---|---|
| Airport | Florida Keys Marathon International Airport (KMTH) |
| Time | Latitude | Longitude | Altitude | Speed | Heading |
|---|---|---|---|---|---|
| 2026-05-05 10:23 | 25.50071 | -80.55493 | 12 ft | 0 kts | 179° |
| 2026-05-05 10:29 | 25.50070 | -80.55493 | 12 ft | 0 kts | 179° |
| 2026-05-05 10:39 | 25.50069 | -80.55493 | 12 ft | 0 kts | 179° |
| 2026-05-05 10:43 | 25.50066 | -80.55493 | 12 ft | 3 kts | 203° |
| 2026-05-05 10:44 | 25.50082 | -80.55526 | 12 ft | 2 kts | 73° |
| 2026-05-05 10:44 | 25.50082 | -80.55525 | 12 ft | 0 kts | 73° |
| 2026-05-05 10:46 | 25.50091 | -80.55518 | 12 ft | 6 kts | 344° |
| 2026-05-05 10:46 | 25.50137 | -80.55531 | 12 ft | 7 kts | 6° |
| 2026-05-05 10:46 | 25.50183 | -80.55523 | 12 ft | 7 kts | 63° |
| 2026-05-05 10:47 | 25.50217 | -80.55488 | 12 ft | 8 kts | 3° |
| 2026-05-05 10:47 | 25.50236 | -80.55488 | 12 ft | 0 kts | 354° |
| 2026-05-05 10:48 | 25.50265 | -80.55488 | 12 ft | 7 kts | 52° |
| 2026-05-05 10:48 | 25.50275 | -80.55450 | 12 ft | 9 kts | 84° |
| 2026-05-05 10:48 | 25.50271 | -80.55002 | 14 ft | 85 kts | 92° |
| 2026-05-05 10:48 | 25.50263 | -80.54548 | 120 ft | 90 kts | 93° |
| 2026-05-05 10:49 | 25.50234 | -80.53886 | 410 ft | 85 kts | 93° |
| 2026-05-05 10:49 | 25.50205 | -80.53232 | 638 ft | 88 kts | 93° |
| 2026-05-05 10:49 | 25.50173 | -80.52527 | 815 ft | 94 kts | 93° |
| 2026-05-05 10:49 | 25.50111 | -80.51792 | 972 ft | 97 kts | 105° |
| 2026-05-05 10:50 | 25.49628 | -80.51322 | 1123 ft | 96 kts | 160° |
| 2026-05-05 10:50 | 25.48976 | -80.51135 | 1289 ft | 96 kts | 167° |
| 2026-05-05 10:50 | 25.48321 | -80.50985 | 1438 ft | 96 kts | 168° |
| 2026-05-05 10:50 | 25.47691 | -80.50790 | 1579 ft | 90 kts | 158° |
| 2026-05-05 10:51 | 25.47169 | -80.50488 | 1709 ft | 82 kts | 144° |
| 2026-05-05 10:51 | 25.46737 | -80.50096 | 1850 ft | 78 kts | 134° |
| 2026-05-05 10:51 | 25.46384 | -80.49664 | 1993 ft | 75 kts | 127° |
| 2026-05-05 10:51 | 25.46072 | -80.49207 | 2138 ft | 72 kts | 124° |
| 2026-05-05 10:52 | 25.45793 | -80.48763 | 2284 ft | 69 kts | 124° |
| 2026-05-05 10:52 | 25.45529 | -80.48332 | 2428 ft | 68 kts | 123° |
| 2026-05-05 10:52 | 25.45260 | -80.47891 | 2581 ft | 70 kts | 123° |
| 2026-05-05 10:52 | 25.44986 | -80.47444 | 2736 ft | 70 kts | 124° |
| 2026-05-05 10:53 | 25.44714 | -80.47003 | 2883 ft | 70 kts | 124° |
| 2026-05-05 10:53 | 25.44440 | -80.46563 | 3026 ft | 69 kts | 124° |
| 2026-05-05 10:53 | 25.44167 | -80.46125 | 3171 ft | 68 kts | 124° |
| 2026-05-05 10:53 | 25.43901 | -80.45698 | 3310 ft | 68 kts | 124° |
| 2026-05-05 10:54 | 25.43633 | -80.45265 | 3455 ft | 68 kts | 124° |
| 2026-05-05 10:54 | 25.43368 | -80.44839 | 3601 ft | 67 kts | 125° |
| 2026-05-05 10:54 | 25.43105 | -80.44415 | 3746 ft | 67 kts | 125° |
| 2026-05-05 10:54 | 25.42844 | -80.43994 | 3888 ft | 66 kts | 125° |
| 2026-05-05 10:55 | 25.42584 | -80.43574 | 4033 ft | 66 kts | 125° |
| 2026-05-05 10:55 | 25.42325 | -80.43157 | 4179 ft | 65 kts | 126° |
| 2026-05-05 10:55 | 25.42055 | -80.42720 | 4346 ft | 73 kts | 126° |
| 2026-05-05 10:55 | 25.41757 | -80.42243 | 4484 ft | 78 kts | 126° |
| 2026-05-05 10:56 | 25.41435 | -80.41730 | 4523 ft | 87 kts | 127° |
| 2026-05-05 10:56 | 25.41074 | -80.41159 | 4510 ft | 93 kts | 126° |
| 2026-05-05 10:56 | 25.40701 | -80.40567 | 4495 ft | 94 kts | 126° |
| 2026-05-05 10:56 | 25.40333 | -80.39980 | 4490 ft | 93 kts | 126° |
| 2026-05-05 10:57 | 25.39964 | -80.39388 | 4491 ft | 93 kts | 126° |
| 2026-05-05 10:57 | 25.39597 | -80.38797 | 4492 ft | 93 kts | 126° |
| 2026-05-05 10:57 | 25.39232 | -80.38212 | 4492 ft | 93 kts | 126° |
| 2026-05-05 10:57 | 25.38863 | -80.37618 | 4491 ft | 93 kts | 126° |
| 2026-05-05 10:58 | 25.38501 | -80.37037 | 4491 ft | 93 kts | 126° |
| 2026-05-05 10:58 | 25.38135 | -80.36448 | 4492 ft | 93 kts | 126° |
| 2026-05-05 10:58 | 25.37769 | -80.35861 | 4491 ft | 93 kts | 126° |
| 2026-05-05 10:58 | 25.37403 | -80.35269 | 4491 ft | 93 kts | 125° |
| 2026-05-05 10:59 | 25.37045 | -80.34678 | 4490 ft | 93 kts | 126° |
| 2026-05-05 10:59 | 25.36677 | -80.34090 | 4494 ft | 93 kts | 126° |
| 2026-05-05 10:59 | 25.36308 | -80.33506 | 4499 ft | 93 kts | 126° |
| 2026-05-05 10:59 | 25.35940 | -80.32920 | 4500 ft | 93 kts | 126° |
| 2026-05-05 11:00 | 25.35572 | -80.32333 | 4499 ft | 93 kts | 126° |
| 2026-05-05 11:00 | 25.35201 | -80.31740 | 4500 ft | 93 kts | 126° |
| 2026-05-05 11:00 | 25.34834 | -80.31151 | 4501 ft | 93 kts | 126° |
| 2026-05-05 11:00 | 25.34469 | -80.30565 | 4501 ft | 93 kts | 126° |
| 2026-05-05 11:01 | 25.34105 | -80.29982 | 4500 ft | 93 kts | 126° |
| 2026-05-05 11:01 | 25.33738 | -80.29392 | 4498 ft | 93 kts | 126° |
| 2026-05-05 11:01 | 25.33370 | -80.28803 | 4500 ft | 93 kts | 126° |
| 2026-05-05 11:01 | 25.32995 | -80.28224 | 4498 ft | 93 kts | 132° |
| 2026-05-05 11:02 | 25.32433 | -80.27919 | 4497 ft | 91 kts | 175° |
| 2026-05-05 11:02 | 25.31848 | -80.28137 | 4504 ft | 91 kts | 217° |
| 2026-05-05 11:02 | 25.31419 | -80.28647 | 4509 ft | 92 kts | 226° |
| 2026-05-05 11:02 | 25.30975 | -80.29163 | 4503 ft | 92 kts | 224° |
| 2026-05-05 11:03 | 25.30528 | -80.29656 | 4499 ft | 92 kts | 223° |
| 2026-05-05 11:03 | 25.30072 | -80.30149 | 4500 ft | 91 kts | 223° |
| 2026-05-05 11:03 | 25.29621 | -80.30633 | 4497 ft | 90 kts | 223° |
| 2026-05-05 11:03 | 25.29173 | -80.31114 | 4498 ft | 89 kts | 223° |
| 2026-05-05 11:04 | 25.28729 | -80.31591 | 4498 ft | 89 kts | 223° |
| 2026-05-05 11:04 | 25.28290 | -80.32065 | 4498 ft | 88 kts | 223° |
| 2026-05-05 11:04 | 25.27853 | -80.32536 | 4500 ft | 87 kts | 223° |
| 2026-05-05 11:04 | 25.27417 | -80.33005 | 4501 ft | 88 kts | 223° |
| 2026-05-05 11:05 | 25.26977 | -80.33479 | 4499 ft | 88 kts | 223° |
| 2026-05-05 11:05 | 25.26544 | -80.33947 | 4500 ft | 88 kts | 223° |
| 2026-05-05 11:05 | 25.26103 | -80.34422 | 4501 ft | 88 kts | 223° |
| 2026-05-05 11:05 | 25.25661 | -80.34899 | 4500 ft | 88 kts | 223° |
| 2026-05-05 11:06 | 25.25228 | -80.35366 | 4501 ft | 88 kts | 223° |
| 2026-05-05 11:06 | 25.24790 | -80.35838 | 4501 ft | 88 kts | 223° |
| 2026-05-05 11:06 | 25.24354 | -80.36308 | 4500 ft | 88 kts | 223° |
| 2026-05-05 11:06 | 25.23913 | -80.36782 | 4500 ft | 88 kts | 223° |
| 2026-05-05 11:07 | 25.23472 | -80.37257 | 4503 ft | 88 kts | 223° |
| 2026-05-05 11:07 | 25.23034 | -80.37729 | 4504 ft | 88 kts | 223° |
| 2026-05-05 11:07 | 25.22598 | -80.38198 | 4504 ft | 88 kts | 223° |
| 2026-05-05 11:07 | 25.22156 | -80.38674 | 4504 ft | 88 kts | 223° |
| 2026-05-05 11:08 | 25.21724 | -80.39139 | 4504 ft | 88 kts | 223° |
| 2026-05-05 11:08 | 25.21284 | -80.39612 | 4504 ft | 88 kts | 223° |
| 2026-05-05 11:08 | 25.20846 | -80.40084 | 4504 ft | 88 kts | 223° |
| 2026-05-05 11:08 | 25.20406 | -80.40558 | 4504 ft | 88 kts | 223° |
| 2026-05-05 11:09 | 25.19971 | -80.41027 | 4501 ft | 88 kts | 223° |
| 2026-05-05 11:09 | 25.19533 | -80.41498 | 4502 ft | 88 kts | 223° |
| 2026-05-05 11:09 | 25.19089 | -80.41976 | 4503 ft | 88 kts | 223° |
| 2026-05-05 11:09 | 25.18655 | -80.42442 | 4505 ft | 88 kts | 223° |
| 2026-05-05 11:10 | 25.18218 | -80.42913 | 4505 ft | 88 kts | 223° |
| 2026-05-05 11:10 | 25.17778 | -80.43385 | 4503 ft | 88 kts | 223° |
| 2026-05-05 11:10 | 25.17342 | -80.43855 | 4500 ft | 88 kts | 223° |
| 2026-05-05 11:10 | 25.16906 | -80.44324 | 4500 ft | 88 kts | 223° |
| 2026-05-05 11:11 | 25.16468 | -80.44795 | 4499 ft | 88 kts | 223° |
| 2026-05-05 11:11 | 25.16029 | -80.45267 | 4499 ft | 88 kts | 223° |
| 2026-05-05 11:11 | 25.15589 | -80.45740 | 4498 ft | 88 kts | 223° |
| 2026-05-05 11:11 | 25.15151 | -80.46211 | 4499 ft | 88 kts | 223° |
| 2026-05-05 11:12 | 25.14715 | -80.46680 | 4518 ft | 88 kts | 223° |
| 2026-05-05 11:12 | 25.14264 | -80.47164 | 4516 ft | 92 kts | 223° |
| 2026-05-05 11:12 | 25.13804 | -80.47660 | 4502 ft | 92 kts | 224° |
| 2026-05-05 11:12 | 25.13355 | -80.48143 | 4481 ft | 89 kts | 223° |
| 2026-05-05 11:13 | 25.12915 | -80.48617 | 4498 ft | 88 kts | 223° |
| 2026-05-05 11:13 | 25.12476 | -80.49088 | 4511 ft | 90 kts | 223° |
| 2026-05-05 11:13 | 25.12024 | -80.49572 | 4504 ft | 91 kts | 223° |
| 2026-05-05 11:13 | 25.11575 | -80.50055 | 4488 ft | 89 kts | 223° |
| 2026-05-05 11:14 | 25.11135 | -80.50528 | 4495 ft | 88 kts | 223° |
| 2026-05-05 11:14 | 25.10699 | -80.50996 | 4500 ft | 87 kts | 223° |
| 2026-05-05 11:14 | 25.10263 | -80.51463 | 4502 ft | 88 kts | 223° |
| 2026-05-05 11:14 | 25.09824 | -80.51935 | 4502 ft | 88 kts | 223° |
| 2026-05-05 11:15 | 25.09392 | -80.52398 | 4502 ft | 88 kts | 223° |
| 2026-05-05 11:15 | 25.08947 | -80.52876 | 4501 ft | 88 kts | 223° |
| 2026-05-05 11:15 | 25.08515 | -80.53339 | 4499 ft | 88 kts | 223° |
| 2026-05-05 11:15 | 25.08077 | -80.53810 | 4500 ft | 88 kts | 223° |
| 2026-05-05 11:16 | 25.07639 | -80.54280 | 4501 ft | 88 kts | 223° |
| 2026-05-05 11:16 | 25.07201 | -80.54749 | 4502 ft | 88 kts | 223° |
| 2026-05-05 11:16 | 25.06764 | -80.55218 | 4502 ft | 88 kts | 223° |
| 2026-05-05 11:16 | 25.06325 | -80.55689 | 4500 ft | 88 kts | 223° |
| 2026-05-05 11:17 | 25.05886 | -80.56161 | 4500 ft | 88 kts | 223° |
| 2026-05-05 11:17 | 25.05451 | -80.56627 | 4501 ft | 88 kts | 223° |
| 2026-05-05 11:17 | 25.05011 | -80.57099 | 4502 ft | 88 kts | 223° |
| 2026-05-05 11:17 | 25.04578 | -80.57564 | 4502 ft | 88 kts | 223° |
| 2026-05-05 11:18 | 25.04141 | -80.58031 | 4500 ft | 87 kts | 223° |
| 2026-05-05 11:18 | 25.03702 | -80.58503 | 4498 ft | 87 kts | 223° |
| 2026-05-05 11:18 | 25.03276 | -80.58960 | 4500 ft | 87 kts | 223° |
| 2026-05-05 11:18 | 25.02842 | -80.59424 | 4502 ft | 87 kts | 223° |
| 2026-05-05 11:19 | 25.02411 | -80.59887 | 4502 ft | 87 kts | 223° |
| 2026-05-05 11:19 | 25.01976 | -80.60352 | 4499 ft | 87 kts | 223° |
| 2026-05-05 11:19 | 25.01544 | -80.60816 | 4501 ft | 87 kts | 223° |
| 2026-05-05 11:19 | 25.01110 | -80.61281 | 4502 ft | 87 kts | 223° |
| 2026-05-05 11:20 | 25.00676 | -80.61745 | 4500 ft | 87 kts | 223° |
| 2026-05-05 11:20 | 25.00248 | -80.62203 | 4501 ft | 87 kts | 223° |
| 2026-05-05 11:20 | 24.99816 | -80.62667 | 4502 ft | 87 kts | 223° |
| 2026-05-05 11:20 | 24.99383 | -80.63131 | 4500 ft | 87 kts | 223° |
| 2026-05-05 11:21 | 24.98951 | -80.63593 | 4501 ft | 87 kts | 223° |
| 2026-05-05 11:21 | 24.98517 | -80.64058 | 4501 ft | 87 kts | 223° |
| 2026-05-05 11:21 | 24.98083 | -80.64522 | 4500 ft | 87 kts | 223° |
| 2026-05-05 11:21 | 24.97651 | -80.64984 | 4501 ft | 87 kts | 223° |
| 2026-05-05 11:22 | 24.97218 | -80.65448 | 4502 ft | 87 kts | 223° |
| 2026-05-05 11:22 | 24.96782 | -80.65915 | 4503 ft | 87 kts | 223° |
| 2026-05-05 11:22 | 24.96357 | -80.66370 | 4518 ft | 86 kts | 223° |
| 2026-05-05 11:22 | 24.95927 | -80.66830 | 4524 ft | 86 kts | 223° |
| 2026-05-05 11:23 | 24.95498 | -80.67289 | 4525 ft | 87 kts | 223° |
| 2026-05-05 11:23 | 24.95065 | -80.67752 | 4524 ft | 87 kts | 223° |
| 2026-05-05 11:23 | 24.94629 | -80.68219 | 4524 ft | 87 kts | 223° |
| 2026-05-05 11:23 | 24.94195 | -80.68683 | 4523 ft | 87 kts | 223° |
| 2026-05-05 11:24 | 24.93766 | -80.69142 | 4530 ft | 87 kts | 223° |
| 2026-05-05 11:24 | 24.93326 | -80.69612 | 4541 ft | 90 kts | 223° |
| 2026-05-05 11:24 | 24.92867 | -80.70104 | 4527 ft | 91 kts | 224° |
| 2026-05-05 11:24 | 24.92420 | -80.70583 | 4519 ft | 91 kts | 224° |
| 2026-05-05 11:25 | 24.91967 | -80.71069 | 4522 ft | 90 kts | 224° |
| 2026-05-05 11:25 | 24.91515 | -80.71551 | 4521 ft | 90 kts | 224° |
| 2026-05-05 11:25 | 24.91065 | -80.72033 | 4519 ft | 90 kts | 224° |
| 2026-05-05 11:25 | 24.90620 | -80.72508 | 4507 ft | 88 kts | 223° |
| 2026-05-05 11:26 | 24.90188 | -80.72969 | 4516 ft | 86 kts | 223° |
| 2026-05-05 11:26 | 24.89759 | -80.73427 | 4522 ft | 86 kts | 223° |
| 2026-05-05 11:26 | 24.89326 | -80.73889 | 4520 ft | 87 kts | 224° |
| 2026-05-05 11:26 | 24.88889 | -80.74360 | 4521 ft | 87 kts | 224° |
| 2026-05-05 11:27 | 24.88466 | -80.74817 | 4522 ft | 87 kts | 224° |
| 2026-05-05 11:27 | 24.88030 | -80.75282 | 4522 ft | 87 kts | 223° |
| 2026-05-05 11:27 | 24.87596 | -80.75741 | 4520 ft | 87 kts | 223° |
| 2026-05-05 11:27 | 24.87161 | -80.76203 | 4521 ft | 87 kts | 223° |
| 2026-05-05 11:28 | 24.86725 | -80.76667 | 4522 ft | 87 kts | 223° |
| 2026-05-05 11:28 | 24.86290 | -80.77131 | 4522 ft | 87 kts | 224° |
| 2026-05-05 11:28 | 24.85862 | -80.77587 | 4522 ft | 87 kts | 224° |
| 2026-05-05 11:28 | 24.85428 | -80.78051 | 4520 ft | 87 kts | 224° |
| 2026-05-05 11:29 | 24.84995 | -80.78513 | 4520 ft | 87 kts | 224° |
| 2026-05-05 11:29 | 24.84560 | -80.78977 | 4520 ft | 87 kts | 224° |
| 2026-05-05 11:29 | 24.84127 | -80.79440 | 4521 ft | 87 kts | 224° |
| 2026-05-05 11:29 | 24.83697 | -80.79898 | 4521 ft | 87 kts | 224° |
| 2026-05-05 11:30 | 24.83259 | -80.80366 | 4521 ft | 87 kts | 224° |
| 2026-05-05 11:30 | 24.82827 | -80.80827 | 4521 ft | 87 kts | 224° |
| 2026-05-05 11:30 | 24.82397 | -80.81286 | 4535 ft | 88 kts | 223° |
| 2026-05-05 11:30 | 24.81938 | -80.81773 | 4575 ft | 96 kts | 224° |
| 2026-05-05 11:31 | 24.81563 | -80.82396 | 4531 ft | 100 kts | 245° |
| 2026-05-05 11:31 | 24.81301 | -80.83102 | 4519 ft | 100 kts | 246° |
| 2026-05-05 11:31 | 24.81038 | -80.83808 | 4506 ft | 98 kts | 246° |
| 2026-05-05 11:31 | 24.80783 | -80.84478 | 4470 ft | 90 kts | 245° |
| 2026-05-05 11:32 | 24.80543 | -80.85093 | 4503 ft | 86 kts | 245° |
| 2026-05-05 11:32 | 24.80303 | -80.85698 | 4521 ft | 86 kts | 245° |
| 2026-05-05 11:32 | 24.80062 | -80.86304 | 4523 ft | 87 kts | 245° |
| 2026-05-05 11:32 | 24.79821 | -80.86913 | 4519 ft | 87 kts | 245° |
| 2026-05-05 11:33 | 24.79575 | -80.87534 | 4503 ft | 88 kts | 245° |
| 2026-05-05 11:33 | 24.79322 | -80.88176 | 4394 ft | 94 kts | 245° |
| 2026-05-05 11:33 | 24.79069 | -80.88819 | 4247 ft | 88 kts | 245° |
| 2026-05-05 11:33 | 24.78836 | -80.89420 | 4092 ft | 84 kts | 245° |
| 2026-05-05 11:34 | 24.78605 | -80.90011 | 3939 ft | 84 kts | 245° |
| 2026-05-05 11:34 | 24.78372 | -80.90603 | 3829 ft | 86 kts | 245° |
| 2026-05-05 11:34 | 24.78118 | -80.91218 | 3677 ft | 88 kts | 244° |
| 2026-05-05 11:34 | 24.77931 | -80.91859 | 3498 ft | 88 kts | 258° |
| 2026-05-05 11:35 | 24.77884 | -80.92531 | 3345 ft | 88 kts | 270° |
| 2026-05-05 11:35 | 24.77947 | -80.93190 | 3201 ft | 88 kts | 278° |
| 2026-05-05 11:35 | 24.78017 | -80.93863 | 3053 ft | 88 kts | 271° |
| 2026-05-05 11:35 | 24.78047 | -80.94538 | 2905 ft | 89 kts | 271° |
| 2026-05-05 11:36 | 24.78078 | -80.95220 | 2757 ft | 89 kts | 271° |
| 2026-05-05 11:36 | 24.78116 | -80.95906 | 2607 ft | 90 kts | 274° |
| 2026-05-05 11:36 | 24.78171 | -80.96590 | 2458 ft | 90 kts | 274° |
| 2026-05-05 11:36 | 24.78188 | -80.97052 | 2358 ft | 90 kts | 269° |
| 2026-05-05 11:37 | 24.78149 | -80.97968 | 2161 ft | 91 kts | 268° |
| 2026-05-05 11:37 | 24.78133 | -80.98432 | 2062 ft | 91 kts | 266° |
| 2026-05-05 11:37 | 24.77942 | -80.99328 | 1868 ft | 91 kts | 249° |
| 2026-05-05 11:37 | 24.77789 | -80.99774 | 1767 ft | 92 kts | 249° |
| 2026-05-05 11:38 | 24.77562 | -81.00433 | 1617 ft | 92 kts | 247° |
| 2026-05-05 11:38 | 24.77273 | -81.01029 | 1471 ft | 88 kts | 239° |
| 2026-05-05 11:38 | 24.76923 | -81.01579 | 1317 ft | 87 kts | 232° |
| 2026-05-05 11:38 | 24.76497 | -81.02049 | 1170 ft | 87 kts | 224° |
| 2026-05-05 11:39 | 24.76048 | -81.02490 | 1040 ft | 85 kts | 223° |
| 2026-05-05 11:39 | 24.75600 | -81.02899 | 982 ft | 80 kts | 218° |
| 2026-05-05 11:39 | 24.75174 | -81.03251 | 978 ft | 75 kts | 219° |
| 2026-05-05 11:39 | 24.74777 | -81.03609 | 988 ft | 73 kts | 227° |
| 2026-05-05 11:40 | 24.74493 | -81.04060 | 999 ft | 71 kts | 247° |
| 2026-05-05 11:40 | 24.74346 | -81.04577 | 1006 ft | 71 kts | 259° |
| 2026-05-05 11:40 | 24.74226 | -81.05105 | 1004 ft | 72 kts | 257° |
| 2026-05-05 11:40 | 24.74065 | -81.05613 | 997 ft | 67 kts | 253° |
| 2026-05-05 11:41 | 24.73893 | -81.06068 | 937 ft | 66 kts | 249° |
| 2026-05-05 11:41 | 24.73696 | -81.06515 | 883 ft | 63 kts | 248° |
| 2026-05-05 11:41 | 24.73523 | -81.06947 | 785 ft | 63 kts | 251° |
| 2026-05-05 11:41 | 24.73285 | -81.07318 | 681 ft | 62 kts | 216° |
| 2026-05-05 11:42 | 24.72866 | -81.07436 | 570 ft | 63 kts | 177° |
| 2026-05-05 11:42 | 24.72453 | -81.07310 | 463 ft | 62 kts | 149° |
| 2026-05-05 11:42 | 24.72166 | -81.06985 | 346 ft | 58 kts | 116° |
| 2026-05-05 11:42 | 24.72083 | -81.06575 | 203 ft | 53 kts | 78° |
| 2026-05-05 11:43 | 24.72202 | -81.06207 | 94 ft | 52 kts | 59° |
| 2026-05-05 11:43 | 24.72355 | -81.05855 | 58 ft | 45 kts | 64° |
| 2026-05-05 11:43 | 24.72456 | -81.05592 | 11 ft | 27 kts | 71° |
| 2026-05-05 11:43 | 24.72497 | -81.05464 | 10 ft | 11 kts | 68° |
| 2026-05-05 11:44 | 24.72519 | -81.05411 | 10 ft | 5 kts | 63° |
| 2026-05-05 11:44 | 24.72544 | -81.05356 | 10 ft | 13 kts | 60° |
| 2026-05-05 11:44 | 24.72588 | -81.05228 | 10 ft | 19 kts | 73° |
| 2026-05-05 11:44 | 24.72599 | -81.05135 | 10 ft | 2 kts | 232° |
| 2026-05-05 11:45 | 24.72587 | -81.05138 | 10 ft | 3 kts | 178° |
| 2026-05-05 11:45 | 24.72570 | -81.05127 | 10 ft | 6 kts | 153° |
| 2026-05-05 11:45 | 24.72549 | -81.05136 | 10 ft | 4 kts | 231° |
| 2026-05-05 11:45 | 24.72533 | -81.05159 | 10 ft | 3 kts | 239° |
| 2026-05-05 11:46 | 24.72517 | -81.05180 | 10 ft | 4 kts | 180° |
| 2026-05-05 11:46 | 24.72516 | -81.05166 | 10 ft | 4 kts | 352° |
| 2026-05-05 11:46 | 24.72551 | -81.05139 | 10 ft | 13 kts | 63° |
| 2026-05-05 11:46 | 24.72563 | -81.05091 | 10 ft | 2 kts | 102° |
| 2026-05-05 11:47 | 24.72558 | -81.05086 | 10 ft | 2 kts | 174° |
| 2026-05-05 11:47 | 24.72550 | -81.05083 | 10 ft | 1 kts | 145° |
| 2026-05-05 11:47 | 24.72549 | -81.05083 | 10 ft | 0 kts | 145° |